Time;durP1;ratioP1;P1;durP2;ratioP2;P2;SDS_P1;SDS_P2;PMS_P1;PMS_P2;Temp;Humidity;BMP_temperature;BMP_pressure;BME280_temperature;BME280_humidity;BME280_pressure;Samples;Min_cycle;Max_cycle;Signal;HPM_P1;HPM_P2
2021/12/22 00:00:37;;;;;;;7.97;4.75;;;-2.20;99.90;;;;;;10184343;28;84152;-49
2021/12/22 00:05:44;;;;;;;9.18;3.45;;;-2.20;99.90;;;;;;10180163;28;84041;-47
2021/12/22 00:10:46;;;;;;;9.27;4.97;;;-2.20;99.90;;;;;;10185612;28;84911;-48
2021/12/22 00:15:47;;;;;;;9.98;3.60;;;-2.10;99.90;;;;;;10186680;28;85066;-49
2021/12/22 00:20:48;;;;;;;15.18;4.78;;;-2.20;99.90;;;;;;10181348;28;84192;-48
2021/12/22 00:25:49;;;;;;;11.68;4.93;;;-2.20;99.90;;;;;;10179653;28;84943;-47
2021/12/22 00:30:51;;;;;;;11.10;4.40;;;-2.20;99.90;;;;;;10185409;28;84372;-48
2021/12/22 00:35:51;;;;;;;9.00;4.10;;;-2.00;99.90;;;;;;10192167;28;84867;-49
2021/12/22 00:40:52;;;;;;;11.27;3.90;;;-2.00;99.90;;;;;;10178330;28;84351;-48
2021/12/22 00:45:56;;;;;;;10.43;4.65;;;-1.90;99.90;;;;;;10177631;28;84246;-53
2021/12/22 00:50:57;;;;;;;9.65;4.53;;;-2.00;99.90;;;;;;10184027;28;84339;-49
2021/12/22 00:55:57;;;;;;;6.15;3.58;;;-2.10;99.90;;;;;;10170310;28;86136;-47
2021/12/22 01:00:59;;;;;;;9.80;4.07;;;-2.10;99.90;;;;;;10164161;28;84995;-49
2021/12/22 01:06:00;;;;;;;7.68;3.55;;;-2.20;99.90;;;;;;10207733;28;84850;-48
2021/12/22 01:11:00;;;;;;;10.02;4.20;;;-2.20;99.90;;;;;;10175977;28;84963;-48
2021/12/22 01:16:01;;;;;;;8.23;3.67;;;-2.10;99.90;;;;;;10185814;28;85119;-48
2021/12/22 01:26:05;;;;;;;8.15;4.82;;;-2.10;99.90;;;;;;10208878;28;85045;-47
2021/12/22 01:31:06;;;;;;;11.00;3.67;;;-2.00;99.90;;;;;;10207828;28;84910;-47
2021/12/22 01:36:07;;;;;;;10.05;4.55;;;-2.10;99.90;;;;;;10208135;28;84814;-49
2021/12/22 01:41:07;;;;;;;10.18;3.83;;;-2.20;99.90;;;;;;10207830;28;84906;-49
2021/12/22 01:51:38;;;;;;;10.68;4.38;;;-2.20;99.90;;;;;;10208960;28;84496;-47
2021/12/22 01:56:43;;;;;;;10.90;4.85;;;-2.00;99.90;;;;;;10209058;28;84254;-50
2021/12/22 02:01:44;;;;;;;6.68;3.90;;;-2.00;99.90;;;;;;10208839;28;84968;-47
2021/12/22 02:06:48;;;;;;;10.70;4.28;;;-2.10;99.90;;;;;;10208357;28;84106;-47
2021/12/22 02:11:49;;;;;;;7.05;3.88;;;-2.00;99.90;;;;;;10207756;28;84147;-48
2021/12/22 02:16:50;;;;;;;15.38;4.85;;;-2.20;99.90;;;;;;10208560;28;84141;-48
2021/12/22 02:21:55;;;;;;;9.98;5.53;;;-2.20;99.90;;;;;;10208002;28;84111;-47
2021/12/22 02:27:05;;;;;;;9.73;4.05;;;-2.20;99.90;;;;;;10207216;28;84077;-48
2021/12/22 02:32:26;;;;;;;11.80;4.93;;;-2.20;99.90;;;;;;10208019;28;85042;-49
2021/12/22 02:37:27;;;;;;;7.95;4.35;;;-2.20;99.90;;;;;;10222860;28;85747;-48
2021/12/22 02:42:30;;;;;;;7.70;3.55;;;-2.10;99.90;;;;;;10208015;28;84987;-50
2021/12/22 02:47:30;;;;;;;5.65;3.33;;;-2.20;99.90;;;;;;10207085;28;84288;-48
2021/12/22 02:52:43;;;;;;;8.23;4.32;;;-2.20;99.90;;;;;;10207437;28;84212;-49
2021/12/22 02:57:48;;;;;;;7.55;3.60;;;-2.30;99.90;;;;;;10205304;28;87260;-47
2021/12/22 03:07:56;;;;;;;11.48;4.88;;;-2.20;99.90;;;;;;10166979;28;84888;-47
2021/12/22 03:13:02;;;;;;;8.90;4.75;;;-2.30;99.90;;;;;;10166150;28;84899;-47
2021/12/22 03:18:04;;;;;;;10.00;4.15;;;-2.40;99.90;;;;;;10166271;28;84153;-47
2021/12/22 03:23:05;;;;;;;6.72;2.60;;;-2.40;99.90;;;;;;10165917;28;85044;-48
2021/12/22 03:28:05;;;;;;;8.75;4.55;;;-2.50;99.90;;;;;;10165617;28;84992;-46
2021/12/22 03:33:06;;;;;;;10.98;3.83;;;-2.40;99.90;;;;;;10165779;28;84975;-48
2021/12/22 03:38:07;;;;;;;10.73;3.60;;;-2.40;99.90;;;;;;10165779;28;85003;-49
2021/12/22 03:43:07;;;;;;;13.20;4.25;;;-2.50;99.90;;;;;;10164058;28;85978;-49
2021/12/22 03:48:08;;;;;;;6.30;3.47;;;-2.50;99.90;;;;;;10164472;28;84183;-50
2021/12/22 03:53:09;;;;;;;13.23;4.75;;;-2.60;99.90;;;;;;10165854;28;84050;-47
2021/12/22 03:58:10;;;;;;;10.55;4.43;;;-2.50;99.90;;;;;;10165737;28;84829;-53
2021/12/22 04:03:17;;;;;;;10.02;4.82;;;-2.40;99.90;;;;;;10165518;28;85213;-51
2021/12/22 04:08:18;;;;;;;9.25;3.80;;;-2.40;99.90;;;;;;10165987;28;84091;-48
2021/12/22 04:13:22;;;;;;;6.15;2.47;;;-2.40;99.90;;;;;;10166013;28;84145;-50
2021/12/22 04:18:23;;;;;;;7.47;3.85;;;-2.40;99.90;;;;;;10165296;28;84902;-47
2021/12/22 04:23:24;;;;;;;10.02;2.92;;;-2.40;99.90;;;;;;10165382;28;84801;-46
2021/12/22 04:28:24;;;;;;;4.38;2.15;;;-2.40;99.90;;;;;;10156888;28;84042;-46
2021/12/22 04:33:25;;;;;;;5.75;3.08;;;-2.60;99.90;;;;;;10147141;28;86062;-47
2021/12/22 04:38:27;;;;;;;6.70;2.83;;;-2.60;99.90;;;;;;10170660;28;84876;-46
2021/12/22 04:43:28;;;;;;;5.65;2.90;;;-2.60;99.90;;;;;;10171103;28;84194;-46
2021/12/22 04:48:31;;;;;;;9.63;4.13;;;-2.60;99.90;;;;;;10169297;28;84789;-45
2021/12/22 04:53:40;;;;;;;8.77;3.90;;;-2.60;99.90;;;;;;10170594;28;84898;-47
2021/12/22 04:58:41;;;;;;;5.50;2.88;;;-2.50;99.90;;;;;;10170961;28;84310;-48
2021/12/22 05:03:42;;;;;;;6.78;3.00;;;-2.40;99.90;;;;;;10171075;28;84943;-47
2021/12/22 05:08:42;;;;;;;7.97;3.55;;;-2.60;99.90;;;;;;10171570;28;84244;-46
2021/12/22 05:13:43;;;;;;;5.40;3.22;;;-2.70;99.90;;;;;;10189149;28;84221;-47
2021/12/22 05:23:49;;;;;;;5.05;2.15;;;-2.90;99.90;;;;;;10189273;28;84947;-47
2021/12/22 05:28:50;;;;;;;4.20;2.75;;;-2.80;99.90;;;;;;10184599;28;84049;-49
2021/12/22 05:33:51;;;;;;;4.38;2.78;;;-2.80;99.90;;;;;;10213818;23;84478;-51
2021/12/22 05:38:51;;;;;;;8.07;4.13;;;-2.70;99.90;;;;;;10184451;28;85106;-56
2021/12/22 05:43:52;;;;;;;7.07;2.58;;;-2.80;99.90;;;;;;10186056;28;84183;-55
2021/12/22 05:48:53;;;;;;;10.57;2.60;;;-2.70;99.90;;;;;;10167867;28;84347;-53
2021/12/22 05:53:54;;;;;;;7.22;2.67;;;-2.80;99.90;;;;;;10178019;28;84440;-50
2021/12/22 05:58:54;;;;;;;5.97;3.17;;;-2.80;99.90;;;;;;10175585;28;84719;-54
2021/12/22 06:03:55;;;;;;;7.07;3.22;;;-2.80;99.90;;;;;;10167423;28;84984;-52
2021/12/22 06:08:56;;;;;;;4.07;2.33;;;-3.00;99.90;;;;;;10169829;28;85023;-56
2021/12/22 06:13:57;;;;;;;7.80;3.30;;;-3.10;99.90;;;;;;10168079;28;84931;-53
2021/12/22 06:19:03;;;;;;;7.28;2.92;;;-3.00;99.90;;;;;;10166480;28;85112;-53
2021/12/22 06:24:04;;;;;;;4.93;2.88;;;-3.00;99.90;;;;;;10182276;28;84315;-57
2021/12/22 06:29:05;;;;;;;9.93;4.10;;;-3.00;99.90;;;;;;10167537;28;84191;-52
2021/12/22 06:34:05;;;;;;;6.93;2.60;;;-3.10;99.90;;;;;;10167254;28;84061;-52
2021/12/22 06:39:07;;;;;;;12.38;3.38;;;-3.20;99.90;;;;;;10166494;28;85019;-55
2021/12/22 06:44:07;;;;;;;4.50;2.70;;;-3.40;99.90;;;;;;10168119;28;84911;-52
2021/12/22 06:49:10;;;;;;;20.92;3.85;;;-3.30;99.90;;;;;;10166232;28;84964;-52
2021/12/22 06:54:10;;;;;;;4.97;3.13;;;-3.20;99.90;;;;;;10162361;28;85024;-51
2021/12/22 06:59:13;;;;;;;2.25;1.38;;;-3.20;99.90;;;;;;10166854;28;84129;-53
2021/12/22 07:04:14;;;;;;;8.02;2.45;;;-3.20;99.90;;;;;;10162791;28;86002;-55
2021/12/22 07:09:14;;;;;;;7.00;2.92;;;-3.00;99.90;;;;;;10164973;28;84968;-56
2021/12/22 07:14:15;;;;;;;4.03;2.35;;;-3.30;99.90;;;;;;10166652;28;84990;-60
2021/12/22 07:19:16;;;;;;;3.05;2.03;;;-3.40;99.90;;;;;;10161943;28;84288;-53
2021/12/22 07:24:17;;;;;;;8.82;3.20;;;-3.30;99.90;;;;;;10161074;28;84202;-53
2021/12/22 07:29:17;;;;;;;6.97;3.00;;;-3.30;99.90;;;;;;10164789;28;84120;-65
2021/12/22 07:34:46;;;;;;;10.40;3.22;;;-3.20;99.90;;;;;;10162329;28;84212;-51
2021/12/22 07:39:47;;;;;;;6.68;2.55;;;-3.40;99.90;;;;;;10162085;28;84373;-50
2021/12/22 07:44:47;;;;;;;7.03;2.85;;;-3.40;99.90;;;;;;10163002;28;85201;-51
2021/12/22 07:49:48;;;;;;;2.97;2.17;;;-3.30;99.90;;;;;;10163343;28;84882;-52
2021/12/22 07:54:49;;;;;;;4.70;2.08;;;-3.10;99.90;;;;;;10164940;28;84787;-50
2021/12/22 07:59:50;;;;;;;6.13;2.28;;;-3.10;99.90;;;;;;10163642;28;84216;-54
2021/12/22 08:04:50;;;;;;;4.55;2.70;;;-3.10;99.90;;;;;;10163657;28;84365;-54
2021/12/22 08:09:51;;;;;;;3.90;2.20;;;-3.10;99.90;;;;;;10165298;28;84139;-52
2021/12/22 08:14:52;;;;;;;3.47;1.88;;;-3.10;99.90;;;;;;10170927;28;84118;-54
2021/12/22 08:19:53;;;;;;;4.90;2.25;;;-3.00;99.90;;;;;;10172674;28;84186;-53
2021/12/22 08:24:53;;;;;;;12.77;3.47;;;-3.10;99.90;;;;;;10186619;28;86210;-54
2021/12/22 08:29:54;;;;;;;4.10;1.88;;;-3.00;99.90;;;;;;10172199;28;84923;-52
2021/12/22 08:34:56;;;;;;;8.20;3.00;;;-2.90;99.90;;;;;;10172839;28;84097;-56
2021/12/22 08:39:58;;;;;;;4.53;2.42;;;-3.00;99.90;;;;;;10173330;28;84230;-53
2021/12/22 08:44:58;;;;;;;5.15;2.03;;;-2.90;99.90;;;;;;10172423;28;85740;-54
2021/12/22 08:49:59;;;;;;;3.58;3.00;;;-2.60;99.90;;;;;;10166993;28;84243;-55
2021/12/22 08:55:00;;;;;;;4.93;3.05;;;-2.50;99.90;;;;;;10168088;28;84883;-55
2021/12/22 09:00:07;;;;;;;3.70;2.83;;;-2.50;99.90;;;;;;10169579;28;86899;-53
2021/12/22 09:05:08;;;;;;;5.88;2.35;;;-2.40;99.90;;;;;;10169743;28;85284;-54
2021/12/22 09:10:09;;;;;;;7.63;3.22;;;-2.40;99.90;;;;;;10168276;28;84054;-52
2021/12/22 09:15:10;;;;;;;3.95;2.47;;;-2.20;99.90;;;;;;10170649;28;85036;-52
2021/12/22 09:20:11;;;;;;;6.72;2.30;;;-2.00;99.90;;;;;;10169200;28;84964;-48
2021/12/22 09:25:11;;;;;;;5.07;2.08;;;-1.90;99.90;;;;;;10165718;28;87052;-51
2021/12/22 09:30:12;;;;;;;6.93;2.63;;;-1.90;99.90;;;;;;10170021;28;84139;-49
2021/12/22 09:35:13;;;;;;;5.47;3.45;;;-1.90;99.90;;;;;;10152530;28;86067;-52
2021/12/22 09:40:14;;;;;;;9.63;2.97;;;-1.70;99.90;;;;;;10169481;28;84960;-55
2021/12/22 09:45:16;;;;;;;5.78;3.63;;;-1.70;99.90;;;;;;10165854;28;85192;-51
2021/12/22 09:50:34;;;;;;;4.82;2.50;;;-1.60;99.90;;;;;;10169224;28;84769;-54
2021/12/22 09:55:35;;;;;;;6.15;2.58;;;-1.60;99.90;;;;;;10165855;28;86336;-52
2021/12/22 10:00:36;;;;;;;7.55;3.67;;;-1.30;99.90;;;;;;10170157;28;84974;-54
2021/12/22 10:05:39;;;;;;;4.85;2.08;;;-1.10;99.90;;;;;;10170003;28;84848;-56
2021/12/22 10:10:45;;;;;;;6.22;3.92;;;-0.90;77.50;;;;;;10168018;28;87597;-54
2021/12/22 10:15:47;;;;;;;9.50;4.82;;;-0.90;55.00;;;;;;10169129;28;84873;-53
2021/12/22 10:20:50;;;;;;;7.53;3.15;;;-0.80;27.40;;;;;;10169960;28;85291;-53
2021/12/22 10:26:04;;;;;;;6.15;3.20;;;-0.80;67.20;;;;;;10162998;28;84862;-53
2021/12/22 10:31:06;;;;;;;9.60;3.67;;;-0.60;61.30;;;;;;10161411;28;84170;-53
2021/12/22 10:36:11;;;;;;;10.25;4.20;;;-0.50;9.50;;;;;;10167583;28;84955;-55
2021/12/22 10:41:11;;;;;;;10.63;3.67;;;-0.60;18.70;;;;;;10167782;28;84923;-53
2021/12/22 10:46:21;;;;;;;8.25;3.20;;;-0.60;28.80;;;;;;10168400;28;84964;-55
2021/12/22 10:51:32;;;;;;;5.47;2.65;;;-0.60;59.30;;;;;;10168397;28;84107;-54
2021/12/22 10:56:35;;;;;;;5.22;3.17;;;-0.50;30.40;;;;;;10168142;28;84331;-49
2021/12/22 11:01:41;;;;;;;6.60;3.25;;;-0.30;20.50;;;;;;10164440;28;84947;-54
2021/12/22 11:06:42;;;;;;;8.70;3.85;;;-0.20;26.50;;;;;;10166395;28;84148;-53
2021/12/22 11:12:05;;;;;;;9.77;2.92;;;0.00;19.90;;;;;;10165876;28;84838;-54
2021/12/22 11:17:11;;;;;;;6.20;2.95;;;0.00;21.40;;;;;;10163273;28;86177;-54
2021/12/22 11:22:14;;;;;;;5.07;2.65;;;0.10;99.90;;;;;;10166039;28;85323;-50
2021/12/22 11:27:20;;;;;;;4.72;2.33;;;0.10;99.90;;;;;;10162456;28;85003;-53
2021/12/22 11:32:23;;;;;;;7.88;3.05;;;0.30;99.90;;;;;;10199991;23;84033;-51
2021/12/22 11:37:25;;;;;;;6.63;3.22;;;0.40;99.90;;;;;;10223940;28;84919;-51
2021/12/22 11:42:31;;;;;;;8.48;3.38;;;0.40;99.90;;;;;;10231048;28;84945;-51
2021/12/22 11:47:43;;;;;;;9.73;6.18;;;0.50;99.90;;;;;;10239784;28;86871;-48
2021/12/22 11:53:06;;;;;;;6.28;3.35;;;0.70;99.90;;;;;;10249796;28;86632;-47
2021/12/22 11:58:45;;;;;;;7.13;2.72;;;0.70;99.90;;;;;;10244247;28;84442;-48
2021/12/22 12:03:45;;;;;;;6.40;3.25;;;0.80;99.90;;;;;;10225168;28;85993;-51
2021/12/22 12:08:49;;;;;;;6.60;3.30;;;1.00;99.90;;;;;;10243509;28;86943;-50
2021/12/22 12:13:57;;;;;;;5.75;3.10;;;1.20;99.90;;;;;;10244691;28;84068;-51
2021/12/22 12:24:42;;;;;;;6.95;3.90;;;1.10;99.90;;;;;;10235901;28;85203;-52
2021/12/22 12:29:59;;;;;;;4.55;3.08;;;1.10;99.90;;;;;;10242998;28;84959;-49
2021/12/22 12:35:23;;;;;;;4.45;2.95;;;1.10;99.90;;;;;;10232347;28;85168;-50
2021/12/22 12:40:24;;;;;;;8.70;3.85;;;1.00;99.90;;;;;;10240819;28;86943;-51
2021/12/22 12:45:46;;;;;;;6.22;3.15;;;1.00;99.90;;;;;;10243063;28;87344;-53
2021/12/22 12:51:16;;;;;;;4.78;2.90;;;1.10;99.90;;;;;;10241002;28;85016;-47
2021/12/22 12:56:18;;;;;;;4.68;2.63;;;1.10;99.90;;;;;;10241730;28;85005;-51
2021/12/22 13:01:50;;;;;;;6.15;2.72;;;1.00;99.90;;;;;;10251174;28;86431;-53
2021/12/22 13:07:01;;;;;;;5.45;3.42;;;1.10;99.90;;;;;;10265947;28;86446;-51
2021/12/22 13:12:10;;;;;;;6.03;2.97;;;1.10;99.90;;;;;;10252693;28;84042;-50
2021/12/22 13:17:10;;;;;;;6.30;3.53;;;1.10;99.90;;;;;;10252132;28;84065;-50
2021/12/22 13:22:29;;;;;;;6.75;3.00;;;1.00;99.90;;;;;;10245568;28;84900;-53
2021/12/22 13:27:31;;;;;;;6.75;3.47;;;0.90;99.90;;;;;;10250695;28;84746;-49
2021/12/22 13:32:32;;;;;;;4.25;2.72;;;0.80;99.90;;;;;;10249155;28;84888;-56
2021/12/22 13:37:48;;;;;;;6.38;3.95;;;0.70;99.90;;;;;;10230475;28;84992;-54
2021/12/22 13:42:49;;;;;;;13.45;7.50;;;0.80;99.90;;;;;;10226986;28;85034;-47
2021/12/22 13:47:50;;;;;;;8.63;3.92;;;0.90;99.90;;;;;;10232093;28;84863;-47
2021/12/22 13:52:50;;;;;;;7.78;4.10;;;0.90;99.90;;;;;;10228082;28;85322;-48
2021/12/22 13:57:51;;;;;;;7.10;3.83;;;1.00;99.90;;;;;;10232598;28;86997;-49
2021/12/22 14:02:52;;;;;;;13.77;5.05;;;1.10;99.90;;;;;;10248058;28;85988;-50
2021/12/22 14:07:52;;;;;;;8.65;3.90;;;1.20;99.90;;;;;;10242061;28;84956;-49
2021/12/22 14:12:57;;;;;;;7.72;4.05;;;1.10;99.90;;;;;;10247730;28;84968;-50
2021/12/22 14:17:58;;;;;;;9.00;3.88;;;1.00;99.90;;;;;;10245523;28;84264;-51
2021/12/22 14:23:03;;;;;;;7.78;4.03;;;1.10;99.90;;;;;;10247208;28;84967;-54
2021/12/22 14:28:20;;;;;;;5.85;3.25;;;1.00;99.90;;;;;;10247865;28;84958;-51
2021/12/22 14:33:30;;;;;;;6.55;3.92;;;1.00;99.90;;;;;;10249373;28;84043;-52
2021/12/22 14:38:34;;;;;;;7.93;3.45;;;1.00;99.90;;;;;;10243751;28;84900;-54
2021/12/22 14:43:36;;;;;;;7.30;4.40;;;0.90;99.90;;;;;;10248392;28;84804;-55
2021/12/22 14:48:41;;;;;;;9.85;4.05;;;0.90;99.90;;;;;;10248215;28;85067;-52
2021/12/22 14:54:00;;;;;;;8.40;3.85;;;0.80;99.90;;;;;;10246478;28;84974;-52
2021/12/22 14:59:00;;;;;;;9.52;4.22;;;0.60;99.90;;;;;;10245564;28;86533;-52
2021/12/22 15:04:01;;;;;;;6.88;4.00;;;0.60;99.90;;;;;;10245982;28;84035;-54
2021/12/22 15:09:05;;;;;;;10.70;3.75;;;0.50;99.90;;;;;;10240237;28;85301;-49
2021/12/22 15:14:06;;;;;;;9.45;4.97;;;0.40;99.90;;;;;;10244657;28;84844;-52
2021/12/22 15:19:07;;;;;;;6.82;3.67;;;0.40;99.90;;;;;;10245659;28;84912;-55
2021/12/22 15:24:08;;;;;;;7.28;4.43;;;0.30;99.90;;;;;;10246056;28;84935;-53
2021/12/22 15:29:08;;;;;;;9.30;4.75;;;0.30;99.90;;;;;;10244399;28;84815;-52
2021/12/22 15:34:09;;;;;;;11.80;4.85;;;0.20;99.90;;;;;;10244433;28;85286;-50
2021/12/22 15:39:09;;;;;;;7.43;4.75;;;0.20;99.90;;;;;;10238906;28;85956;-53
2021/12/22 15:44:10;;;;;;;9.77;4.78;;;0.20;99.90;;;;;;10247563;28;85154;-56
2021/12/22 15:49:11;;;;;;;11.05;4.90;;;0.20;99.90;;;;;;10244990;28;86090;-55
2021/12/22 15:54:12;;;;;;;10.18;5.15;;;0.10;99.90;;;;;;10246010;28;84913;-54
2021/12/22 15:59:13;;;;;;;9.20;4.20;;;0.00;99.90;;;;;;10246817;28;85330;-51
2021/12/22 16:04:13;;;;;;;9.50;4.88;;;0.00;99.90;;;;;;10246115;28;84676;-51
2021/12/22 16:09:14;;;;;;;8.20;4.63;;;0.00;99.90;;;;;;10243370;28;84049;-54
2021/12/22 16:14:15;;;;;;;8.32;4.38;;;0.10;99.90;;;;;;10243429;28;85691;-50
2021/12/22 16:19:15;;;;;;;9.98;5.53;;;0.00;99.90;;;;;;10243726;28;85074;-56
2021/12/22 16:24:16;;;;;;;10.70;5.38;;;0.00;99.90;;;;;;10244628;28;84927;-63
2021/12/22 16:29:17;;;;;;;12.95;5.95;;;-0.10;99.90;;;;;;10244921;28;84189;-54
2021/12/22 16:34:17;;;;;;;8.85;5.45;;;-0.10;99.90;;;;;;10250738;28;84270;-50
2021/12/22 16:39:20;;;;;;;11.75;4.55;;;-0.10;99.90;;;;;;10252017;28;84855;-53
2021/12/22 16:44:25;;;;;;;11.23;5.70;;;-0.10;99.90;;;;;;10250727;28;85920;-52
2021/12/22 16:49:26;;;;;;;11.57;4.65;;;-0.10;99.90;;;;;;10229139;28;84213;-48
2021/12/22 16:54:26;;;;;;;10.80;5.38;;;-0.10;99.90;;;;;;10265627;28;86784;-51
2021/12/22 16:59:27;;;;;;;11.07;5.82;;;-0.10;99.90;;;;;;10233534;28;87218;-51
2021/12/22 17:04:27;;;;;;;8.95;5.38;;;-0.10;99.90;;;;;;10251544;28;85443;-53
2021/12/22 17:09:28;;;;;;;15.43;5.68;;;0.00;99.90;;;;;;10279745;28;84828;-55
2021/12/22 17:14:29;;;;;;;8.38;4.63;;;-0.10;99.90;;;;;;10256419;28;85761;-61
2021/12/22 17:19:29;;;;;;;10.35;5.38;;;-0.20;99.90;;;;;;10250867;28;84949;-52
2021/12/22 17:24:30;;;;;;;9.82;5.80;;;-0.30;99.90;;;;;;10249110;28;84401;-50
2021/12/22 17:29:31;;;;;;;6.80;4.85;;;-0.30;99.90;;;;;;10250148;28;84911;-53
2021/12/22 17:34:32;;;;;;;8.05;5.25;;;-0.40;99.90;;;;;;10244217;23;84633;-55
2021/12/22 17:39:32;;;;;;;11.05;5.60;;;-0.40;99.90;;;;;;10210354;28;84900;-56
2021/12/22 17:44:33;;;;;;;11.18;4.93;;;-0.40;99.90;;;;;;10208799;28;87077;-51
2021/12/22 17:49:34;;;;;;;11.73;5.35;;;-0.30;99.90;;;;;;10204533;28;84924;-52
2021/12/22 17:54:35;;;;;;;14.20;5.40;;;-0.30;99.90;;;;;;10205406;28;84242;-54
2021/12/22 17:59:35;;;;;;;10.45;5.53;;;-0.20;99.90;;;;;;10206514;28;84928;-55
2021/12/22 18:04:37;;;;;;;10.35;5.47;;;-0.30;99.90;;;;;;10208101;28;84084;-51
2021/12/22 18:09:37;;;;;;;14.18;5.32;;;-0.30;99.90;;;;;;10207976;28;84091;-55
2021/12/22 18:14:38;;;;;;;13.05;7.22;;;-0.30;99.90;;;;;;10204762;28;84984;-52
2021/12/22 18:19:39;;;;;;;10.23;4.93;;;-0.30;99.90;;;;;;10191843;28;84209;-56
2021/12/22 18:24:39;;;;;;;12.65;6.63;;;-0.20;99.90;;;;;;10203533;28;85928;-53
2021/12/22 18:29:40;;;;;;;9.65;5.70;;;-0.10;99.90;;;;;;10221081;28;84211;-53
2021/12/22 18:34:41;;;;;;;12.55;5.50;;;-0.20;99.90;;;;;;10204165;28;84320;-50
2021/12/22 18:39:47;;;;;;;11.27;6.05;;;-0.30;99.90;;;;;;10199016;28;85101;-52
2021/12/22 18:44:48;;;;;;;10.82;4.90;;;-0.40;99.90;;;;;;10216484;28;84114;-55
2021/12/22 18:49:49;;;;;;;8.07;4.55;;;-0.40;99.90;;;;;;10205084;28;84775;-53
2021/12/22 18:54:49;;;;;;;15.70;6.15;;;-0.50;99.90;;;;;;10202842;28;84202;-56
2021/12/22 18:59:50;;;;;;;12.93;5.80;;;-0.50;99.90;;;;;;10207803;28;84701;-55
2021/12/22 19:04:51;;;;;;;13.30;5.72;;;-0.50;99.90;;;;;;10196568;28;87037;-54
2021/12/22 19:09:52;;;;;;;19.35;5.00;;;-0.50;99.90;;;;;;10202507;28;84894;-54
2021/12/22 19:14:53;;;;;;;11.63;6.18;;;-0.50;99.90;;;;;;10237506;28;84103;-50
2021/12/22 19:19:53;;;;;;;11.98;6.47;;;-0.50;99.90;;;;;;10217434;28;84782;-55
2021/12/22 19:24:54;;;;;;;10.55;4.32;;;-0.40;99.90;;;;;;10193944;28;84303;-56
2021/12/22 19:29:55;;;;;;;12.73;5.70;;;-0.50;99.90;;;;;;10196507;28;86168;-52
2021/12/22 19:34:55;;;;;;;13.15;6.20;;;-0.40;99.90;;;;;;10197694;28;84066;-52
2021/12/22 19:39:56;;;;;;;14.90;5.85;;;-0.30;99.90;;;;;;10202771;28;84781;-53
2021/12/22 19:44:57;;;;;;;11.13;5.05;;;-0.20;99.90;;;;;;10200765;28;84797;-54
2021/12/22 19:49:58;;;;;;;16.40;6.38;;;-0.20;99.90;;;;;;10199160;28;84838;-56
2021/12/22 19:55:00;;;;;;;10.85;5.18;;;-0.30;99.90;;;;;;10199973;28;84238;-52
2021/12/22 20:00:03;;;;;;;9.52;4.63;;;-0.20;99.90;;;;;;10192095;28;86993;-56
2021/12/22 20:05:05;;;;;;;7.60;4.93;;;-0.30;99.90;;;;;;10198608;28;84251;-57
2021/12/22 20:10:08;;;;;;;8.40;3.97;;;-0.30;99.90;;;;;;10228202;28;84114;-57
2021/12/22 20:15:10;;;;;;;11.20;4.88;;;-0.20;99.90;;;;;;10248656;28;84764;-53
2021/12/22 20:20:14;;;;;;;9.48;4.70;;;-0.20;99.90;;;;;;10211619;28;84758;-55
2021/12/22 20:25:14;;;;;;;10.27;5.75;;;-0.30;99.90;;;;;;10209141;28;84278;-52
2021/12/22 20:30:19;;;;;;;14.48;5.65;;;-0.60;99.90;;;;;;10207584;28;87358;-55
2021/12/22 20:35:21;;;;;;;16.58;5.35;;;-0.60;99.90;;;;;;10210497;28;84898;-54
2021/12/22 20:40:25;;;;;;;12.02;5.70;;;-0.60;99.90;;;;;;10204268;28;84995;-57
2021/12/22 20:45:25;;;;;;;15.38;6.53;;;-0.50;99.90;;;;;;10204898;28;85372;-55
2021/12/22 20:50:29;;;;;;;8.43;5.53;;;-0.50;99.90;;;;;;10213162;28;90080;-55
2021/12/22 20:55:30;;;;;;;16.02;7.55;;;-0.50;99.90;;;;;;10215415;28;85138;-51
2021/12/22 21:00:32;;;;;;;11.60;5.50;;;-0.40;99.90;;;;;;10214492;28;84323;-56
2021/12/22 21:05:33;;;;;;;12.88;6.43;;;-0.40;99.90;;;;;;10213044;28;85136;-52
2021/12/22 21:10:34;;;;;;;15.82;5.13;;;-0.40;99.90;;;;;;10212620;28;84347;-53
2021/12/22 21:15:35;;;;;;;11.15;5.78;;;-0.50;99.90;;;;;;10209078;28;84742;-56
2021/12/22 21:20:36;;;;;;;14.45;5.78;;;-0.50;99.90;;;;;;10208566;28;84335;-57
2021/12/22 21:25:37;;;;;;;10.23;4.88;;;-0.60;99.90;;;;;;10208796;28;84295;-56
2021/12/22 21:30:39;;;;;;;8.00;3.55;;;-0.70;99.90;;;;;;10207050;28;84928;-57
2021/12/22 21:35:42;;;;;;;11.93;6.38;;;-0.70;99.90;;;;;;10207213;28;85254;-55
2021/12/22 21:40:44;;;;;;;9.10;4.88;;;-0.60;99.90;;;;;;10208481;28;84937;-55
2021/12/22 21:45:44;;;;;;;8.63;5.15;;;-0.50;99.90;;;;;;10209714;28;84255;-56
2021/12/22 21:50:46;;;;;;;10.10;5.43;;;-0.50;99.90;;;;;;10209842;28;84160;-56
2021/12/22 21:55:47;;;;;;;11.15;5.07;;;-0.40;99.90;;;;;;10207535;28;87035;-57
2021/12/22 22:00:49;;;;;;;14.75;4.78;;;-0.30;99.90;;;;;;10208196;28;84036;-52
2021/12/22 22:05:49;;;;;;;15.10;5.47;;;-0.30;99.90;;;;;;10209773;28;85158;-53
2021/12/22 22:10:50;;;;;;;10.25;4.45;;;-0.40;99.90;;;;;;10207990;28;84249;-55
2021/12/22 22:15:51;;;;;;;10.13;5.03;;;-0.40;99.90;;;;;;10207085;28;86086;-55
2021/12/22 22:20:51;;;;;;;7.63;4.97;;;-0.40;99.90;;;;;;10210078;28;84994;-57
2021/12/22 22:25:52;;;;;;;15.77;5.15;;;-0.40;99.90;;;;;;10212792;28;84155;-57
2021/12/22 22:30:53;;;;;;;10.13;5.47;;;-0.40;99.90;;;;;;10211434;28;84185;-58
2021/12/22 22:35:55;;;;;;;9.30;4.72;;;-0.40;99.90;;;;;;10208793;28;84806;-57
2021/12/22 22:40:56;;;;;;;8.98;5.20;;;-0.20;99.90;;;;;;10208737;28;84229;-53
2021/12/22 22:45:56;;;;;;;9.10;4.90;;;-0.30;99.90;;;;;;10207181;28;84067;-52
2021/12/22 22:50:57;;;;;;;9.65;4.05;;;-0.40;99.90;;;;;;10207596;28;85058;-57
2021/12/22 22:55:58;;;;;;;7.97;4.35;;;-0.40;99.90;;;;;;10207542;28;84032;-51
2021/12/22 23:00:58;;;;;;;7.53;3.40;;;-0.40;99.90;;;;;;10207665;28;84209;-50
2021/12/22 23:05:59;;;;;;;8.88;4.13;;;-0.40;99.90;;;;;;10206570;28;85054;-56
2021/12/22 23:11:00;;;;;;;15.15;5.30;;;-0.20;99.90;;;;;;10207100;28;84104;-54
2021/12/22 23:16:05;;;;;;;12.35;5.55;;;-0.10;99.90;;;;;;10206269;28;84945;-51
2021/12/22 23:21:07;;;;;;;7.45;4.07;;;-0.10;99.90;;;;;;10206289;28;84870;-52
2021/12/22 23:26:07;;;;;;;14.27;4.50;;;-0.20;99.90;;;;;;10206502;28;84380;-52
2021/12/22 23:31:08;;;;;;;8.50;4.40;;;-0.30;99.90;;;;;;10205567;28;84070;-56
2021/12/22 23:36:23;;;;;;;7.13;4.60;;;-0.10;99.90;;;;;;10188905;23;85805;-56
2021/12/22 23:41:42;;;;;;;9.77;4.47;;;-0.20;99.90;;;;;;10149679;28;86157;-53
2021/12/22 23:52:02;;;;;;;10.93;4.88;;;-0.60;99.90;;;;;;10126131;28;85798;-58
2021/12/22 23:57:03;;;;;;;10.73;4.68;;;-0.50;99.90;;;;;;10127032;28;84909;-54
